Time;durP1;ratioP1;P1;durP2;ratioP2;P2;SDS_P1;SDS_P2;PMS_P1;PMS_P2;Temp;Humidity;BMP_temperature;BMP_pressure;BME280_temperature;BME280_humidity;BME280_pressure;Samples;Min_cycle;Max_cycle;Signal;HPM_P1;HPM_P2
2022/01/23 00:02:16;;;;;;;15.57;7.13;;;-4.20;99.90;;;;;;5011536;28;20230;-51
2022/01/23 00:04:42;;;;;;;17.13;6.70;;;-4.30;99.90;;;;;;4996252;28;20241;-58
2022/01/23 00:07:11;;;;;;;19.37;8.77;;;-4.30;99.90;;;;;;5012118;28;20248;-56
2022/01/23 00:09:37;;;;;;;17.10;8.07;;;-4.30;99.90;;;;;;5012134;28;20636;-53
2022/01/23 00:12:09;;;;;;;18.67;7.47;;;-4.30;99.90;;;;;;5012094;28;20643;-51
2022/01/23 00:17:23;;;;;;;23.97;9.07;;;-4.30;99.90;;;;;;5011949;28;20202;-53
2022/01/23 00:19:54;;;;;;;16.77;6.70;;;-4.30;99.90;;;;;;5012176;28;20192;-55
2022/01/23 00:22:24;;;;;;;21.37;9.23;;;-4.30;99.90;;;;;;5011691;28;20752;-54
2022/01/23 00:30:20;;;;;;;17.53;7.27;;;-4.30;99.90;;;;;;5012283;28;20229;-53
2022/01/23 00:32:46;;;;;;;16.40;7.67;;;-4.40;99.90;;;;;;5012419;28;20183;-53
2022/01/23 00:35:12;;;;;;;24.13;8.53;;;-4.40;99.90;;;;;;4994824;28;20658;-52
2022/01/23 00:37:38;;;;;;;22.47;8.57;;;-4.40;99.90;;;;;;5012382;28;20189;-55
2022/01/23 00:40:05;;;;;;;13.10;5.67;;;-4.40;99.90;;;;;;5015910;28;20546;-54
2022/01/23 00:42:31;;;;;;;13.13;6.47;;;-4.40;99.90;;;;;;5015311;28;20223;-54
2022/01/23 00:45:14;;;;;;;24.60;10.47;;;-4.40;99.90;;;;;;5016055;28;20219;-53
2022/01/23 00:47:39;;;;;;;21.07;8.10;;;-4.40;99.90;;;;;;5015661;28;20515;-53
2022/01/23 00:50:05;;;;;;;16.07;7.27;;;-4.40;99.90;;;;;;4998278;28;20184;-55
2022/01/23 00:52:31;;;;;;;18.60;7.83;;;-4.40;99.90;;;;;;5015683;28;20222;-53
2022/01/23 00:55:00;;;;;;;18.87;7.63;;;-4.40;99.90;;;;;;5015365;28;20314;-51
2022/01/23 00:57:26;;;;;;;23.17;8.30;;;-4.40;99.90;;;;;;5015585;28;20245;-50
2022/01/23 00:59:52;;;;;;;26.20;7.60;;;-4.40;99.90;;;;;;4997904;28;20191;-54
2022/01/23 01:02:18;;;;;;;15.67;7.47;;;-4.40;99.90;;;;;;5015461;28;20207;-51
2022/01/23 01:04:43;;;;;;;19.70;8.60;;;-4.40;99.90;;;;;;5015506;28;20190;-53
2022/01/23 01:07:09;;;;;;;19.27;8.80;;;-4.40;99.90;;;;;;5015372;28;20266;-50
2022/01/23 01:09:35;;;;;;;22.10;8.13;;;-4.40;99.90;;;;;;5015042;28;20553;-55
2022/01/23 01:12:06;;;;;;;21.33;9.00;;;-4.40;99.90;;;;;;5015287;28;20202;-51
2022/01/23 01:17:25;;;;;;;21.03;9.30;;;-4.40;99.90;;;;;;5015289;28;20704;-54
2022/01/23 01:35:41;;;;;;;19.90;9.83;;;-4.50;99.90;;;;;;5014721;28;20274;-51
2022/01/23 01:38:07;;;;;;;12.27;5.30;;;-4.50;99.90;;;;;;5014956;28;20194;-53
2022/01/23 01:40:33;;;;;;;12.33;5.37;;;-4.40;99.90;;;;;;5014599;28;20183;-53
2022/01/23 01:43:00;;;;;;;14.50;6.60;;;-4.40;99.90;;;;;;5014548;28;20211;-51
2022/01/23 01:45:29;;;;;;;21.00;6.77;;;-4.40;99.90;;;;;;5014607;28;20187;-52
2022/01/23 01:48:00;;;;;;;15.17;6.47;;;-4.40;99.90;;;;;;5014762;28;20207;-53
2022/01/23 01:50:27;;;;;;;17.77;8.03;;;-4.40;99.90;;;;;;5013194;28;20187;-49
2022/01/23 01:52:53;;;;;;;18.13;8.57;;;-4.30;99.90;;;;;;5014895;28;20218;-49
2022/01/23 01:55:30;;;;;;;16.17;6.80;;;-4.30;99.90;;;;;;5014577;28;20239;-53
2022/01/23 01:58:02;;;;;;;9.23;4.53;;;-4.30;99.90;;;;;;5014527;28;20226;-52
2022/01/23 02:10:50;;;;;;;16.87;7.60;;;-4.40;99.90;;;;;;5014332;28;20183;-50
2022/01/23 02:13:20;;;;;;;20.20;10.13;;;-4.30;99.90;;;;;;5013880;28;20196;-50
2022/01/23 02:51:11;;;;;;;10.93;5.30;;;-4.40;99.90;;;;;;5013893;28;20254;-55
2022/01/23 02:56:32;;;;;;;12.83;5.70;;;-4.50;99.90;;;;;;5013471;28;20195;-54
2022/01/23 02:59:00;;;;;;;14.53;5.47;;;-4.50;99.90;;;;;;5013427;28;20194;-55
2022/01/23 03:01:34;;;;;;;11.73;5.10;;;-4.50;99.90;;;;;;5012693;28;20686;-56
2022/01/23 03:04:04;;;;;;;11.93;4.00;;;-4.50;99.90;;;;;;5013329;28;20183;-51
2022/01/23 03:06:55;;;;;;;7.37;3.47;;;-4.50;99.90;;;;;;5013120;28;20554;-55
2022/01/23 03:30:18;;;;;;;9.70;4.87;;;-4.70;99.90;;;;;;4998013;28;20190;-55
2022/01/23 03:32:47;;;;;;;13.47;5.80;;;-4.70;99.90;;;;;;5005248;28;20247;-53
2022/01/23 03:35:14;;;;;;;16.27;5.83;;;-4.70;99.90;;;;;;5012754;28;20172;-55
2022/01/23 03:37:40;;;;;;;22.97;6.80;;;-4.70;99.90;;;;;;5004886;28;20187;-55
2022/01/23 03:40:07;;;;;;;12.77;4.90;;;-4.70;99.90;;;;;;5012654;28;20511;-53
2022/01/23 03:42:36;;;;;;;11.50;6.37;;;-4.70;99.90;;;;;;5012396;28;20214;-50
2022/01/23 03:50:45;;;;;;;10.30;6.07;;;-4.60;99.90;;;;;;4981735;28;20221;-50
2022/01/23 03:53:12;;;;;;;19.27;5.67;;;-4.50;99.90;;;;;;5012104;28;20214;-53
2022/01/23 03:55:37;;;;;;;14.00;6.80;;;-4.50;99.90;;;;;;5012245;28;20176;-55
2022/01/23 03:58:03;;;;;;;12.43;5.57;;;-4.40;99.90;;;;;;5012374;28;20233;-54
2022/01/23 04:00:29;;;;;;;16.07;6.10;;;-4.40;99.90;;;;;;5011861;28;20187;-53
2022/01/23 04:02:55;;;;;;;13.03;5.83;;;-4.40;99.90;;;;;;5012596;28;20210;-54
2022/01/23 04:05:21;;;;;;;13.37;6.10;;;-4.40;99.90;;;;;;5012328;28;20194;-53
2022/01/23 04:07:47;;;;;;;11.90;5.33;;;-4.40;99.90;;;;;;5012535;28;20187;-54
2022/01/23 04:10:15;;;;;;;13.30;5.63;;;-4.40;99.90;;;;;;5012244;28;20191;-55
2022/01/23 04:12:55;;;;;;;13.47;4.93;;;-4.40;99.90;;;;;;5011572;28;20179;-52
2022/01/23 04:34:20;;;;;;;12.73;5.07;;;-4.40;99.90;;;;;;5012216;28;20528;-49
2022/01/23 05:06:27;;;;;;;17.37;5.90;;;-4.50;99.90;;;;;;5011069;28;20228;-53
2022/01/23 05:08:53;;;;;;;13.00;5.80;;;-4.60;99.90;;;;;;5011231;28;20217;-52
2022/01/23 05:11:19;;;;;;;9.73;3.70;;;-4.50;99.90;;;;;;5011253;28;20191;-49
2022/01/23 05:13:45;;;;;;;17.10;5.90;;;-4.50;99.90;;;;;;5011277;28;20184;-56
2022/01/23 05:16:12;;;;;;;14.40;6.93;;;-4.60;99.90;;;;;;5011034;28;20180;-53
2022/01/23 05:18:39;;;;;;;14.60;5.40;;;-4.60;99.90;;;;;;4993656;28;20188;-54
2022/01/23 05:23:50;;;;;;;16.83;6.07;;;-4.50;99.90;;;;;;5012462;28;20213;-54
2022/01/23 05:26:16;;;;;;;10.87;5.17;;;-4.50;99.90;;;;;;5014968;28;20179;-52
2022/01/23 05:28:42;;;;;;;18.07;7.13;;;-4.50;99.90;;;;;;5014632;28;20183;-54
2022/01/23 05:31:08;;;;;;;9.03;4.80;;;-4.50;99.90;;;;;;5014914;28;20183;-51
2022/01/23 05:33:33;;;;;;;20.87;6.60;;;-4.50;99.90;;;;;;5014676;28;20708;-61
2022/01/23 05:35:59;;;;;;;18.63;6.70;;;-4.50;99.90;;;;;;5014769;28;20188;-55
2022/01/23 05:38:25;;;;;;;17.60;6.57;;;-4.50;99.90;;;;;;4997893;28;20226;-56
2022/01/23 05:40:56;;;;;;;15.30;6.97;;;-4.50;99.90;;;;;;5014479;28;20699;-57
2022/01/23 05:43:23;;;;;;;11.40;5.33;;;-4.50;99.90;;;;;;5014706;28;20219;-53
2022/01/23 05:45:49;;;;;;;16.87;7.10;;;-4.50;99.90;;;;;;5014441;28;20274;-52
2022/01/23 05:48:15;;;;;;;15.87;6.70;;;-4.50;99.90;;;;;;5014609;28;20670;-53
2022/01/23 05:50:41;;;;;;;15.90;6.67;;;-4.60;99.90;;;;;;5014325;28;20662;-53
2022/01/23 05:53:07;;;;;;;13.93;6.47;;;-4.50;99.90;;;;;;5014932;28;20184;-52
2022/01/23 05:55:33;;;;;;;18.50;7.70;;;-4.60;99.90;;;;;;5014686;28;20238;-55
2022/01/23 05:57:58;;;;;;;18.37;7.63;;;-4.50;99.90;;;;;;5014365;28;20550;-53
2022/01/23 06:00:24;;;;;;;17.07;7.00;;;-4.60;99.90;;;;;;5014498;28;20546;-51
2022/01/23 06:02:50;;;;;;;14.80;7.20;;;-4.60;99.90;;;;;;5013960;28;20199;-53
2022/01/23 06:05:15;;;;;;;14.77;7.60;;;-4.60;99.90;;;;;;4996775;28;20212;-52
2022/01/23 06:07:42;;;;;;;16.67;7.00;;;-4.50;99.90;;;;;;5014118;28;20194;-54
2022/01/23 06:10:15;;;;;;;12.53;6.13;;;-4.50;99.90;;;;;;5014388;28;20183;-53
2022/01/23 06:12:42;;;;;;;15.93;6.20;;;-4.50;99.90;;;;;;5013941;28;20721;-54
2022/01/23 06:15:08;;;;;;;13.07;4.93;;;-4.50;99.90;;;;;;5013999;28;20183;-55
2022/01/23 06:17:34;;;;;;;22.00;6.40;;;-4.50;99.90;;;;;;5014140;28;20192;-55
2022/01/23 06:20:01;;;;;;;13.70;6.23;;;-4.50;99.90;;;;;;5013378;28;20191;-53
2022/01/23 06:22:27;;;;;;;19.40;5.47;;;-4.50;99.90;;;;;;4996215;28;20246;-53
2022/01/23 06:24:53;;;;;;;10.23;5.50;;;-4.50;99.90;;;;;;5013703;28;20625;-54
2022/01/23 06:27:18;;;;;;;15.10;7.03;;;-4.50;99.90;;;;;;5014207;28;20230;-54
2022/01/23 06:29:45;;;;;;;14.27;5.97;;;-4.50;99.90;;;;;;5013652;28;20199;-52
2022/01/23 06:32:12;;;;;;;17.20;8.20;;;-4.50;99.90;;;;;;5013302;28;20214;-56
2022/01/23 06:34:38;;;;;;;14.33;6.73;;;-4.50;99.90;;;;;;5013982;28;20183;-54
2022/01/23 06:37:05;;;;;;;11.43;5.30;;;-4.40;99.90;;;;;;5012919;28;20199;-55
2022/01/23 06:39:31;;;;;;;14.47;6.50;;;-4.40;99.90;;;;;;5013741;28;20284;-55
2022/01/23 06:41:57;;;;;;;14.17;6.63;;;-4.40;99.90;;;;;;5013258;28;20491;-55
2022/01/23 06:44:23;;;;;;;11.43;5.53;;;-4.40;99.90;;;;;;5013735;28;20195;-54
2022/01/23 06:46:49;;;;;;;18.87;6.83;;;-4.30;99.90;;;;;;5013047;28;20636;-58
2022/01/23 06:49:15;;;;;;;14.77;6.40;;;-4.30;99.90;;;;;;5013796;28;20183;-54
2022/01/23 06:51:42;;;;;;;12.57;5.60;;;-4.30;99.90;;;;;;5013096;28;20643;-53
2022/01/23 06:54:09;;;;;;;17.90;6.93;;;-4.30;99.90;;;;;;5013356;28;20235;-59
2022/01/23 06:56:35;;;;;;;19.13;5.73;;;-4.20;99.90;;;;;;5013397;28;20180;-55
2022/01/23 06:59:01;;;;;;;10.57;5.80;;;-4.20;99.90;;;;;;5013058;28;20547;-54
2022/01/23 07:01:27;;;;;;;18.63;6.03;;;-4.20;99.90;;;;;;5012780;28;20260;-53
2022/01/23 07:03:52;;;;;;;10.00;4.97;;;-4.20;99.90;;;;;;5012846;28;20195;-54
2022/01/23 07:06:18;;;;;;;17.37;6.30;;;-4.10;99.90;;;;;;5013210;28;20188;-53
2022/01/23 07:08:44;;;;;;;16.13;7.20;;;-4.10;99.90;;;;;;5012535;28;20524;-56
2022/01/23 07:11:10;;;;;;;18.43;7.80;;;-4.10;99.90;;;;;;5012506;28;20182;-54
2022/01/23 07:13:35;;;;;;;14.83;7.10;;;-4.00;99.90;;;;;;5013033;28;20212;-55
2022/01/23 07:16:06;;;;;;;17.77;7.47;;;-3.90;99.90;;;;;;5012836;28;20192;-52
2022/01/23 07:18:32;;;;;;;13.90;6.17;;;-3.90;99.90;;;;;;4996447;28;20207;-54
2022/01/23 07:20:58;;;;;;;15.40;6.60;;;-3.90;99.90;;;;;;5012579;28;20639;-54
2022/01/23 07:23:24;;;;;;;17.57;6.20;;;-3.80;99.90;;;;;;5013021;28;20227;-55
2022/01/23 07:25:51;;;;;;;12.80;5.23;;;-3.80;99.90;;;;;;5012527;28;20673;-53
2022/01/23 07:28:20;;;;;;;16.23;6.17;;;-3.70;99.90;;;;;;5012252;28;20188;-54
2022/01/23 07:30:52;;;;;;;18.10;6.87;;;-3.70;99.90;;;;;;5012084;28;20183;-54
2022/01/23 07:33:18;;;;;;;14.23;4.10;;;-3.60;99.90;;;;;;5012549;28;20284;-53
2022/01/23 07:35:45;;;;;;;14.93;6.30;;;-3.60;99.90;;;;;;5012696;28;20625;-53
2022/01/23 07:38:14;;;;;;;14.57;6.07;;;-3.70;99.90;;;;;;5012333;28;20553;-53
2022/01/23 07:40:40;;;;;;;12.50;6.07;;;-3.70;99.90;;;;;;5012272;28;20193;-51
2022/01/23 07:43:05;;;;;;;20.57;6.27;;;-3.80;99.90;;;;;;5011850;28;20227;-55
2022/01/23 07:45:31;;;;;;;12.77;5.33;;;-3.80;99.90;;;;;;5012140;28;20625;-54
2022/01/23 07:47:57;;;;;;;20.07;5.73;;;-3.70;99.90;;;;;;5010884;28;20189;-54
2022/01/23 07:50:23;;;;;;;15.23;5.63;;;-3.70;99.90;;;;;;5012297;28;20239;-54
2022/01/23 07:52:49;;;;;;;13.03;5.57;;;-3.60;99.90;;;;;;4994261;28;20663;-54
2022/01/23 07:55:15;;;;;;;24.93;5.57;;;-3.60;99.90;;;;;;4991308;28;20236;-55
2022/01/23 07:57:45;;;;;;;11.63;4.97;;;-3.60;99.90;;;;;;5012034;28;20191;-66
2022/01/23 08:00:12;;;;;;;16.43;5.27;;;-3.60;99.90;;;;;;5012236;28;20266;-53
2022/01/23 08:02:38;;;;;;;13.00;6.80;;;-3.40;99.90;;;;;;5012380;28;20683;-53
2022/01/23 08:05:05;;;;;;;16.63;5.90;;;-3.30;99.90;;;;;;4993886;28;20192;-54
2022/01/23 08:07:31;;;;;;;14.07;5.77;;;-3.30;99.90;;;;;;5012083;28;20664;-57
2022/01/23 08:09:58;;;;;;;22.40;5.73;;;-3.20;99.90;;;;;;5011242;28;20286;-54
2022/01/23 08:12:27;;;;;;;18.23;6.53;;;-3.30;99.90;;;;;;5011368;28;20216;-54
2022/01/23 08:14:54;;;;;;;11.23;5.10;;;-3.30;99.90;;;;;;4993949;28;20211;-53
2022/01/23 08:17:24;;;;;;;13.80;5.60;;;-3.20;99.90;;;;;;5011745;28;20192;-55
2022/01/23 08:19:54;;;;;;;19.40;6.27;;;-3.30;99.90;;;;;;5011540;28;20194;-52
2022/01/23 08:22:21;;;;;;;14.40;4.83;;;-3.20;99.90;;;;;;5011447;28;20689;-55
2022/01/23 08:24:48;;;;;;;11.40;5.47;;;-3.20;99.90;;;;;;5011506;28;20182;-53
2022/01/23 08:27:14;;;;;;;19.43;6.47;;;-3.30;99.90;;;;;;5011615;28;20266;-53
2022/01/23 08:29:40;;;;;;;10.80;5.13;;;-3.30;99.90;;;;;;5011749;28;20621;-52
2022/01/23 08:32:07;;;;;;;11.60;5.87;;;-3.20;99.90;;;;;;5011324;28;20298;-54
2022/01/23 08:34:32;;;;;;;10.47;4.80;;;-3.20;99.90;;;;;;5011401;28;20226;-57
2022/01/23 08:36:58;;;;;;;10.17;4.80;;;-3.20;99.90;;;;;;5011045;28;20527;-56
2022/01/23 08:39:26;;;;;;;14.50;6.30;;;-3.20;99.90;;;;;;5011480;28;20231;-54
2022/01/23 08:41:52;;;;;;;12.90;6.13;;;-3.30;99.90;;;;;;5011095;28;20224;-53
2022/01/23 08:44:18;;;;;;;11.50;5.27;;;-3.30;99.90;;;;;;5011544;28;20192;-54
2022/01/23 08:46:45;;;;;;;13.57;4.37;;;-3.20;99.90;;;;;;4993682;28;20547;-67
2022/01/23 08:49:11;;;;;;;16.93;5.77;;;-3.30;99.90;;;;;;5011520;28;20278;-53
2022/01/23 08:51:37;;;;;;;16.70;7.30;;;-3.30;99.90;;;;;;5010923;28;20643;-54
2022/01/23 08:54:04;;;;;;;13.60;5.10;;;-3.30;99.90;;;;;;5010722;28;20258;-54
2022/01/23 08:56:31;;;;;;;14.53;5.70;;;-3.30;99.90;;;;;;5011461;28;20193;-56
2022/01/23 08:58:56;;;;;;;13.77;5.70;;;-3.30;99.90;;;;;;5012428;28;20258;-52
2022/01/23 09:01:23;;;;;;;14.00;4.83;;;-3.20;99.90;;;;;;5015188;28;20634;-53
2022/01/23 09:03:49;;;;;;;15.43;6.07;;;-3.10;99.90;;;;;;5014949;28;20230;-56
2022/01/23 09:06:15;;;;;;;14.67;5.80;;;-3.10;99.90;;;;;;5015005;28;20664;-53
2022/01/23 09:08:41;;;;;;;16.37;5.97;;;-3.00;99.90;;;;;;5014721;28;20225;-53
2022/01/23 09:11:23;;;;;;;20.70;8.60;;;-3.00;99.90;;;;;;5014721;28;20287;-54
2022/01/23 09:16:15;;;;;;;12.47;5.60;;;-2.90;99.90;;;;;;5015314;28;20182;-55
2022/01/23 09:18:41;;;;;;;19.00;6.63;;;-2.80;99.90;;;;;;5015018;28;20658;-54
2022/01/23 09:21:07;;;;;;;15.77;6.17;;;-2.80;99.90;;;;;;5014260;28;20189;-57
2022/01/23 09:23:33;;;;;;;10.43;5.30;;;-3.00;99.90;;;;;;5014578;28;20651;-54
2022/01/23 09:26:08;;;;;;;11.33;4.27;;;-3.00;99.90;;;;;;5014563;28;20187;-56
2022/01/23 09:28:36;;;;;;;8.83;3.87;;;-3.00;99.90;;;;;;5014704;28;20182;-54
2022/01/23 09:31:02;;;;;;;17.37;5.33;;;-3.00;99.90;;;;;;5014317;28;20191;-51
2022/01/23 09:33:29;;;;;;;10.40;4.20;;;-3.00;99.90;;;;;;4980739;28;20193;-54
2022/01/23 09:35:55;;;;;;;16.10;5.13;;;-3.00;99.90;;;;;;5013896;28;20212;-55
2022/01/23 09:38:21;;;;;;;12.00;5.20;;;-2.90;99.90;;;;;;4997295;28;20190;-57
2022/01/23 09:40:51;;;;;;;19.73;5.80;;;-3.00;99.90;;;;;;5014490;28;20172;-53
2022/01/23 09:43:19;;;;;;;13.23;5.63;;;-3.00;99.90;;;;;;5014433;28;20213;-55
2022/01/23 09:45:47;;;;;;;24.60;5.97;;;-2.90;99.90;;;;;;5014811;28;20255;-55
2022/01/23 09:48:15;;;;;;;12.80;5.57;;;-2.80;99.90;;;;;;5013835;28;20180;-55
2022/01/23 09:50:44;;;;;;;9.17;4.57;;;-2.60;99.90;;;;;;5014069;28;20554;-54
2022/01/23 09:53:11;;;;;;;12.37;5.63;;;-2.50;99.90;;;;;;5013658;28;20280;-56
2022/01/23 09:55:38;;;;;;;11.27;4.70;;;-2.40;99.90;;;;;;5014653;28;20688;-53
2022/01/23 09:58:05;;;;;;;18.03;6.40;;;-2.50;99.90;;;;;;5014056;28;20182;-55
2022/01/23 10:00:32;;;;;;;8.57;4.13;;;-2.30;99.90;;;;;;5014161;28;20186;-57
2022/01/23 10:02:58;;;;;;;12.83;5.50;;;-2.30;99.90;;;;;;4995947;28;20590;-55
2022/01/23 10:05:24;;;;;;;14.60;5.70;;;-2.10;99.90;;;;;;5014117;28;20195;-55
2022/01/23 10:07:53;;;;;;;17.53;5.50;;;-2.10;99.90;;;;;;5013748;28;20303;-60
2022/01/23 10:10:24;;;;;;;14.20;5.33;;;-2.00;99.90;;;;;;5012552;28;20182;-54
2022/01/23 10:12:59;;;;;;;6.80;3.63;;;-1.90;99.90;;;;;;5013550;28;20187;-63
2022/01/23 10:15:30;;;;;;;9.20;3.73;;;-1.90;99.90;;;;;;4993855;28;20182;-56
2022/01/23 10:17:57;;;;;;;7.80;3.30;;;-1.70;99.90;;;;;;4993731;28;20596;-53
2022/01/23 10:20:24;;;;;;;9.87;4.90;;;-1.70;99.90;;;;;;4993810;28;20183;-52
2022/01/23 10:22:51;;;;;;;7.77;3.93;;;-1.70;99.90;;;;;;4993135;28;20603;-54
2022/01/23 10:25:20;;;;;;;11.07;6.13;;;-1.90;99.90;;;;;;4976931;28;20191;-56
2022/01/23 10:28:02;;;;;;;11.17;5.30;;;-1.90;99.90;;;;;;4993749;28;20573;-54
2022/01/23 10:30:31;;;;;;;12.47;4.93;;;-2.00;99.90;;;;;;4993851;28;20182;-55
2022/01/23 10:33:10;;;;;;;10.07;5.33;;;-2.20;99.90;;;;;;4993788;28;20655;-59
2022/01/23 10:36:06;;;;;;;10.93;4.50;;;-2.40;99.90;;;;;;4993873;28;20602;-53
2022/01/23 10:38:36;;;;;;;9.93;4.27;;;-2.50;99.90;;;;;;4993873;28;20179;-54
2022/01/23 10:41:30;;;;;;;19.40;6.70;;;-2.70;99.90;;;;;;4993262;28;20734;-57
2022/01/23 10:49:59;;;;;;;17.00;4.70;;;-3.30;99.90;;;;;;4993184;28;20657;-53
2022/01/23 10:52:47;;;;;;;9.53;4.90;;;-3.20;99.90;;;;;;4993490;28;20182;-52
2022/01/23 10:55:13;;;;;;;13.57;4.83;;;-3.30;99.90;;;;;;4975827;28;20595;-55
2022/01/23 10:57:44;;;;;;;14.10;5.07;;;-3.10;99.90;;;;;;4993555;28;20262;-52
2022/01/23 11:00:33;;;;;;;13.63;5.20;;;-3.10;99.90;;;;;;4993430;28;20228;-54
2022/01/23 11:03:11;;;;;;;14.90;4.83;;;-3.00;99.90;;;;;;4993022;28;20674;-49
2022/01/23 11:05:39;;;;;;;12.43;5.53;;;-2.80;99.90;;;;;;4993537;28;20181;-50
2022/01/23 11:08:40;;;;;;;8.03;4.07;;;-2.90;99.90;;;;;;4993104;28;20668;-53
2022/01/23 11:11:09;;;;;;;9.47;5.07;;;-2.90;99.90;;;;;;4914086;29;20236;-54
2022/01/23 11:19:30;;;;;;;12.40;5.73;;;-2.90;99.90;;;;;;4992926;28;20185;-55
2022/01/23 11:21:59;;;;;;;30.20;6.93;;;-2.70;99.90;;;;;;4992313;28;20230;-53
2022/01/23 11:24:35;;;;;;;17.07;7.43;;;-2.50;99.90;;;;;;4992706;28;20191;-53
2022/01/23 11:27:03;;;;;;;10.33;5.10;;;-2.40;99.90;;;;;;4992682;28;20217;-53
2022/01/23 11:29:31;;;;;;;12.83;5.30;;;-2.50;99.90;;;;;;4992802;28;20175;-52
2022/01/23 11:31:57;;;;;;;10.57;5.27;;;-2.60;99.90;;;;;;4992388;28;20246;-52
2022/01/23 11:34:28;;;;;;;13.17;6.83;;;-2.60;99.90;;;;;;4992607;28;20214;-55
2022/01/23 11:36:54;;;;;;;15.97;6.90;;;-2.50;99.90;;;;;;4992548;28;20740;-54
2022/01/23 11:39:44;;;;;;;14.37;6.03;;;-2.50;99.90;;;;;;4992641;28;20175;-54
2022/01/23 11:56:28;;;;;;;14.17;5.73;;;-2.50;99.90;;;;;;4992176;28;20202;-54
2022/01/23 11:59:16;;;;;;;15.23;6.10;;;-2.70;99.90;;;;;;4983727;28;20254;-55
2022/01/23 12:01:45;;;;;;;11.70;4.83;;;-2.80;99.90;;;;;;4991807;28;20317;-52
2022/01/23 12:04:20;;;;;;;17.10;7.30;;;-3.00;99.90;;;;;;4991847;28;20194;-54
2022/01/23 12:07:12;;;;;;;23.47;7.07;;;-3.10;99.90;;;;;;4992236;28;20186;-53
2022/01/23 12:09:42;;;;;;;16.13;6.90;;;-3.20;99.90;;;;;;4975913;28;20210;-53
2022/01/23 12:18:21;;;;;;;20.73;8.00;;;-3.80;99.90;;;;;;4991819;28;20308;-52
2022/01/23 12:20:49;;;;;;;21.20;8.67;;;-4.10;99.90;;;;;;4991836;28;20188;-53
2022/01/23 12:23:16;;;;;;;19.93;8.63;;;-4.20;99.90;;;;;;4991849;28;20236;-49
2022/01/23 12:25:44;;;;;;;25.87;10.30;;;-4.30;99.90;;;;;;4974063;28;20239;-56
2022/01/23 12:28:43;;;;;;;25.50;10.80;;;-4.20;99.90;;;;;;4991846;28;20553;-53
2022/01/23 12:31:15;;;;;;;20.03;8.63;;;-4.10;99.90;;;;;;4991773;28;20192;-52
2022/01/23 12:33:40;;;;;;;25.00;9.27;;;-4.10;99.90;;;;;;4992973;28;20260;-53
2022/01/23 12:36:15;;;;;;;27.20;10.50;;;-4.10;99.90;;;;;;4995787;28;20287;-58
2022/01/23 12:38:44;;;;;;;22.57;9.73;;;-4.10;99.90;;;;;;4995602;28;20179;-52
2022/01/23 12:41:29;;;;;;;21.57;8.47;;;-4.10;99.90;;;;;;4995398;28;20183;-51
2022/01/23 12:44:00;;;;;;;22.47;9.17;;;-4.30;99.90;;;;;;4996117;28;20636;-53
2022/01/23 12:46:40;;;;;;;22.17;9.33;;;-4.30;99.90;;;;;;4995774;28;20176;-54
2022/01/23 12:49:26;;;;;;;17.80;8.07;;;-4.40;99.90;;;;;;4995560;28;20283;-51
2022/01/23 12:52:14;;;;;;;18.90;7.10;;;-4.30;99.90;;;;;;4979370;28;20302;-53
2022/01/23 12:54:51;;;;;;;19.77;8.63;;;-4.20;99.90;;;;;;4982846;28;20639;-54
2022/01/23 12:57:19;;;;;;;23.20;9.13;;;-4.40;99.90;;;;;;4975931;28;20641;-56
2022/01/23 12:59:59;;;;;;;22.80;8.70;;;-4.30;99.90;;;;;;4975941;28;20173;-52
2022/01/23 13:02:30;;;;;;;33.37;11.47;;;-4.40;99.90;;;;;;4976424;28;20679;-58
2022/01/23 13:04:57;;;;;;;21.13;8.03;;;-4.40;99.90;;;;;;4975963;28;20549;-62
2022/01/23 13:10:22;;;;;;;22.33;10.37;;;-4.70;99.90;;;;;;4958917;28;20220;-51
2022/01/23 13:34:31;;;;;;;18.13;6.10;;;-5.70;99.90;;;;;;4994890;28;20279;-53
2022/01/23 13:37:19;;;;;;;24.80;8.73;;;-5.70;99.90;;;;;;4995057;28;20226;-60
2022/01/23 13:40:03;;;;;;;15.47;5.77;;;-5.70;99.90;;;;;;4995360;28;20556;-54
2022/01/23 13:59:22;;;;;;;27.53;9.77;;;-6.10;99.90;;;;;;4994467;28;20595;-56
2022/01/23 14:04:34;;;;;;;40.03;11.23;;;-6.00;99.90;;;;;;4994353;28;20271;-53
2022/01/23 14:07:00;;;;;;;26.77;10.50;;;-5.90;99.90;;;;;;4994602;28;20238;-56
2022/01/23 14:09:26;;;;;;;23.10;9.00;;;-5.90;99.90;;;;;;4994327;28;20184;-55
2022/01/23 14:11:53;;;;;;;16.47;7.33;;;-5.90;99.90;;;;;;4994517;28;20231;-50
2022/01/23 14:14:26;;;;;;;28.00;11.07;;;-6.00;99.90;;;;;;4983791;28;20176;-55
2022/01/23 14:16:55;;;;;;;23.57;9.27;;;-6.10;99.90;;;;;;4994272;28;20179;-51
2022/01/23 14:19:29;;;;;;;15.67;7.70;;;-6.10;99.90;;;;;;4994311;28;20510;-54
2022/01/23 14:22:01;;;;;;;18.03;7.73;;;-6.10;99.90;;;;;;4994105;28;20934;-56
2022/01/23 14:24:36;;;;;;;18.63;8.13;;;-6.20;99.90;;;;;;4994301;28;20184;-53
2022/01/23 14:27:11;;;;;;;29.73;11.87;;;-6.20;99.90;;;;;;4993786;28;20573;-50
2022/01/23 14:29:48;;;;;;;22.27;8.83;;;-6.30;99.90;;;;;;4993799;28;20413;-53
2022/01/23 14:32:27;;;;;;;21.37;8.23;;;-6.30;99.90;;;;;;4993752;28;20640;-55
2022/01/23 14:35:20;;;;;;;31.10;11.90;;;-6.30;99.90;;;;;;4993911;28;20417;-54
2022/01/23 14:37:48;;;;;;;26.17;9.33;;;-6.30;99.90;;;;;;4993771;28;20188;-53
2022/01/23 14:40:16;;;;;;;23.50;9.67;;;-6.40;99.90;;;;;;4993603;28;20512;-54
2022/01/23 14:43:03;;;;;;;22.67;9.80;;;-6.40;99.90;;;;;;4993689;28;20212;-50
2022/01/23 14:45:31;;;;;;;19.80;6.97;;;-6.40;99.90;;;;;;4993728;28;20651;-51
2022/01/23 14:47:57;;;;;;;25.07;9.50;;;-6.50;99.90;;;;;;4993338;28;20191;-53
2022/01/23 14:50:25;;;;;;;16.40;7.87;;;-6.60;99.90;;;;;;4992373;28;20422;-51
2022/01/23 14:52:51;;;;;;;19.03;7.43;;;-6.70;99.90;;;;;;4975622;28;20291;-51
2022/01/23 14:55:17;;;;;;;17.53;6.50;;;-6.80;99.90;;;;;;5009742;28;20485;-55
2022/01/23 14:57:45;;;;;;;16.90;7.83;;;-6.90;99.90;;;;;;5012427;28;20482;-54
2022/01/23 15:00:12;;;;;;;16.27;6.00;;;-6.90;99.90;;;;;;5013013;28;20515;-51
2022/01/23 15:02:40;;;;;;;19.47;8.63;;;-7.00;99.90;;;;;;5012799;28;20510;-54
2022/01/23 15:05:07;;;;;;;13.03;6.90;;;-7.10;99.90;;;;;;5012663;28;20397;-53
2022/01/23 15:07:37;;;;;;;21.53;9.17;;;-7.20;99.90;;;;;;5013283;28;20471;-48
2022/01/23 15:10:06;;;;;;;19.63;7.20;;;-7.30;99.90;;;;;;5012271;28;20440;-56
2022/01/23 15:12:32;;;;;;;28.23;8.43;;;-7.40;99.90;;;;;;5012900;28;20417;-52
2022/01/23 15:14:58;;;;;;;17.30;7.13;;;-7.50;99.90;;;;;;4980159;28;20426;-54
2022/01/23 15:17:25;;;;;;;27.13;8.93;;;-7.60;99.90;;;;;;4973592;28;20760;-52
2022/01/23 15:19:53;;;;;;;18.67;8.83;;;-7.60;99.90;;;;;;4974094;28;20196;-51
2022/01/23 15:22:18;;;;;;;19.23;8.77;;;-7.70;99.90;;;;;;4973358;28;20513;-57
2022/01/23 15:24:45;;;;;;;26.63;11.87;;;-7.70;99.90;;;;;;4973807;28;20593;-55
2022/01/23 15:27:11;;;;;;;29.53;11.07;;;-7.80;99.90;;;;;;4973473;28;20177;-54
2022/01/23 15:29:36;;;;;;;25.37;10.27;;;-7.90;99.90;;;;;;4973585;28;20415;-53
2022/01/23 15:32:03;;;;;;;28.80;10.40;;;-7.90;99.90;;;;;;4972858;28;20192;-53
2022/01/23 15:34:30;;;;;;;31.30;10.07;;;-7.90;99.90;;;;;;4973816;28;20267;-51
2022/01/23 15:36:56;;;;;;;14.33;7.27;;;-7.90;99.90;;;;;;4973684;28;20402;-54
2022/01/23 15:39:24;;;;;;;19.13;7.73;;;-7.90;99.90;;;;;;4972332;28;20423;-54
2022/01/23 15:41:50;;;;;;;21.03;8.43;;;-7.90;99.90;;;;;;4973401;28;20463;-55
2022/01/23 15:44:17;;;;;;;23.93;10.33;;;-7.80;99.90;;;;;;4972577;28;20517;-56
2022/01/23 15:46:43;;;;;;;30.03;11.60;;;-7.80;99.90;;;;;;4973115;28;20181;-53
2022/01/23 15:49:09;;;;;;;17.40;7.83;;;-7.80;99.90;;;;;;4973219;28;20419;-56
2022/01/23 15:51:36;;;;;;;27.47;10.93;;;-7.80;99.90;;;;;;4973725;28;20915;-53
2022/01/23 15:54:03;;;;;;;18.03;7.37;;;-7.80;99.90;;;;;;4987180;28;20251;-51
2022/01/23 15:56:28;;;;;;;54.33;14.43;;;-7.80;99.90;;;;;;5012296;28;20889;-57
2022/01/23 15:58:54;;;;;;;23.43;9.60;;;-7.70;99.90;;;;;;5012339;28;20404;-56
2022/01/23 16:01:20;;;;;;;26.70;8.73;;;-7.70;99.90;;;;;;5011786;28;20183;-55
2022/01/23 16:03:46;;;;;;;18.67;7.93;;;-7.70;99.90;;;;;;5012103;28;20335;-51
2022/01/23 16:06:12;;;;;;;24.10;8.83;;;-7.60;99.90;;;;;;5011932;28;20425;-53
2022/01/23 16:08:38;;;;;;;24.60;9.07;;;-7.50;99.90;;;;;;5011182;28;20179;-57
2022/01/23 16:11:06;;;;;;;29.87;12.80;;;-7.40;99.90;;;;;;5011924;28;20198;-57
2022/01/23 16:13:32;;;;;;;27.10;10.20;;;-7.40;99.90;;;;;;5011932;28;20409;-55
2022/01/23 16:15:59;;;;;;;16.83;7.73;;;-7.40;99.90;;;;;;5011620;28;20419;-52
2022/01/23 16:18:25;;;;;;;21.37;8.00;;;-7.30;99.90;;;;;;5012095;28;20191;-54
2022/01/23 16:20:52;;;;;;;30.77;12.70;;;-7.20;99.90;;;;;;5012178;28;20408;-51
2022/01/23 16:23:18;;;;;;;17.47;8.00;;;-7.20;99.90;;;;;;5010743;28;20976;-52
2022/01/23 16:25:44;;;;;;;27.30;10.57;;;-7.10;99.90;;;;;;5011923;28;20901;-55
2022/01/23 16:28:09;;;;;;;25.03;9.90;;;-7.10;99.90;;;;;;5011412;28;20412;-54
2022/01/23 16:30:44;;;;;;;22.90;9.03;;;-7.10;99.90;;;;;;5012016;28;20196;-54
2022/01/23 16:33:10;;;;;;;25.43;10.63;;;-7.10;99.90;;;;;;5011579;28;20241;-53
2022/01/23 16:35:36;;;;;;;21.00;9.00;;;-7.00;99.90;;;;;;4994178;28;20901;-52
2022/01/23 16:38:02;;;;;;;32.97;12.07;;;-7.00;99.90;;;;;;5011504;28;20643;-49